Time;durP1;ratioP1;P1;durP2;ratioP2;P2;SDS_P1;SDS_P2;PMS_P1;PMS_P2;Temp;Humidity;BMP_temperature;BMP_pressure;BME280_temperature;BME280_humidity;BME280_pressure;Samples;Min_cycle;Max_cycle;Signal;HPM_P1;HPM_P2
2021/08/06 00:00:32;;;;;;;1.80;1.70;;;25.20;55.70;;;;;;5083411;28;20208;-71
2021/08/06 00:03:01;;;;;;;2.13;1.93;;;25.20;55.70;;;;;;5106282;28;20201;-71
2021/08/06 00:05:32;;;;;;;1.80;1.70;;;25.20;55.70;;;;;;5101782;27;20211;-71
2021/08/06 00:08:03;;;;;;;1.80;1.70;;;25.20;55.70;;;;;;5107727;28;20196;-71
2021/08/06 00:10:34;;;;;;;2.00;1.80;;;25.20;55.70;;;;;;5100554;28;20296;-71
2021/08/06 00:13:03;;;;;;;1.80;1.70;;;25.20;55.70;;;;;;5098333;28;20232;-71
2021/08/06 00:15:35;;;;;;;1.80;1.70;;;25.20;55.70;;;;;;5098030;28;20826;-71
2021/08/06 00:18:06;;;;;;;1.80;1.70;;;25.20;55.70;;;;;;5102461;28;20239;-71
2021/08/06 00:20:38;;;;;;;1.70;1.60;;;25.20;55.70;;;;;;5105169;28;20257;-71
2021/08/06 00:23:07;;;;;;;1.90;1.80;;;25.10;55.60;;;;;;5108087;28;20215;-71
2021/08/06 00:25:39;;;;;;;1.80;1.70;;;25.10;55.70;;;;;;5106343;28;20196;-70
2021/08/06 00:28:10;;;;;;;1.80;1.63;;;25.10;55.70;;;;;;5103870;28;20215;-71
2021/08/06 00:30:42;;;;;;;1.60;1.50;;;25.10;55.70;;;;;;5089729;28;20208;-71
2021/08/06 00:33:10;;;;;;;1.70;1.60;;;25.10;55.70;;;;;;5096308;28;20722;-71
2021/08/06 00:35:51;;;;;;;2.00;1.90;;;25.20;55.80;;;;;;5108414;28;20208;-71
2021/08/06 00:38:21;;;;;;;1.50;1.40;;;25.10;55.70;;;;;;5106515;28;20651;-71
2021/08/06 00:40:51;;;;;;;1.90;1.70;;;25.10;55.60;;;;;;5105975;28;20556;-71
2021/08/06 00:43:26;;;;;;;1.87;1.70;;;25.10;55.70;;;;;;5102689;28;20605;-71
2021/08/06 00:46:04;;;;;;;1.87;1.77;;;25.10;55.70;;;;;;5104720;28;20311;-71
2021/08/06 00:48:40;;;;;;;1.50;1.40;;;25.10;55.60;;;;;;5102926;28;20641;-71
2021/08/06 00:51:08;;;;;;;1.83;1.73;;;25.10;55.70;;;;;;5091443;28;20307;-71
2021/08/06 00:53:38;;;;;;;1.70;1.60;;;25.10;55.70;;;;;;5110515;28;20195;-70
2021/08/06 00:56:10;;;;;;;1.87;1.73;;;25.00;55.70;;;;;;5113779;28;20266;-71
2021/08/06 00:58:39;;;;;;;1.50;1.40;;;25.10;55.70;;;;;;5105134;28;20556;-71
2021/08/06 01:01:09;;;;;;;1.97;1.73;;;25.00;55.60;;;;;;5098652;28;20199;-71
2021/08/06 01:04:04;;;;;;;1.70;1.60;;;25.00;55.60;;;;;;5097552;28;20706;-71
2021/08/06 01:06:52;;;;;;;1.30;1.20;;;25.00;55.60;;;;;;5103047;28;20275;-71
2021/08/06 01:09:48;;;;;;;1.43;1.33;;;25.00;55.60;;;;;;5108581;28;20281;-71
2021/08/06 01:12:32;;;;;;;1.60;1.50;;;25.00;55.60;;;;;;5101379;28;20618;-71
2021/08/06 01:15:02;;;;;;;1.80;1.70;;;25.00;55.60;;;;;;5097579;28;20224;-71
2021/08/06 01:17:37;;;;;;;1.50;1.40;;;25.00;55.60;;;;;;5107732;28;20188;-71
2021/08/06 01:20:21;;;;;;;1.67;1.57;;;25.00;55.60;;;;;;5099382;28;20570;-71
2021/08/06 01:23:04;;;;;;;1.80;1.70;;;25.00;55.60;;;;;;5106261;28;20200;-71
2021/08/06 01:26:01;;;;;;;2.10;1.90;;;25.00;55.60;;;;;;5092745;28;20238;-71
2021/08/06 01:28:35;;;;;;;1.90;1.70;;;25.00;55.70;;;;;;5096388;28;20698;-71
2021/08/06 01:31:26;;;;;;;1.47;1.37;;;25.00;55.60;;;;;;5100538;28;20595;-71
2021/08/06 01:33:55;;;;;;;1.53;1.43;;;25.00;55.60;;;;;;5100905;28;20208;-71
2021/08/06 01:36:24;;;;;;;1.70;1.60;;;25.00;55.60;;;;;;5101083;28;20197;-71
2021/08/06 01:39:00;;;;;;;1.97;1.87;;;24.90;55.50;;;;;;5103624;28;20223;-71
2021/08/06 01:42:06;;;;;;;1.50;1.40;;;24.90;55.50;;;;;;5106862;28;20184;-71
2021/08/06 01:44:50;;;;;;;1.60;1.50;;;24.90;55.60;;;;;;5096241;28;20234;-71
2021/08/06 01:47:25;;;;;;;1.73;1.63;;;24.90;55.60;;;;;;5104265;28;20208;-71
2021/08/06 01:50:08;;;;;;;1.40;1.30;;;24.90;55.60;;;;;;5101549;28;20216;-71
2021/08/06 01:52:59;;;;;;;1.40;1.30;;;24.90;55.60;;;;;;5098606;28;20591;-71
2021/08/06 01:55:40;;;;;;;1.60;1.50;;;24.90;55.60;;;;;;5108668;28;20266;-71
2021/08/06 01:58:11;;;;;;;1.37;1.27;;;24.90;55.60;;;;;;5103506;28;20606;-71
2021/08/06 02:00:42;;;;;;;1.53;1.43;;;24.90;55.50;;;;;;5107074;28;20223;-71
2021/08/06 02:03:14;;;;;;;1.80;1.70;;;24.90;55.50;;;;;;5099370;28;20733;-71
2021/08/06 02:05:50;;;;;;;1.83;1.73;;;24.90;55.60;;;;;;5107482;28;20192;-71
2021/08/06 02:08:35;;;;;;;1.73;1.63;;;24.90;55.60;;;;;;5094051;28;20546;-71
2021/08/06 02:11:05;;;;;;;1.40;1.30;;;24.90;55.50;;;;;;5104339;28;20212;-71
2021/08/06 02:13:39;;;;;;;1.63;1.47;;;24.90;55.60;;;;;;5105498;28;20192;-71
2021/08/06 02:16:10;;;;;;;1.57;1.47;;;24.90;55.50;;;;;;5107620;28;20832;-71
2021/08/06 02:18:51;;;;;;;1.80;1.63;;;24.90;55.60;;;;;;5100634;28;20184;-71
2021/08/06 02:21:34;;;;;;;2.10;2.00;;;24.90;55.50;;;;;;5102239;28;20224;-71
2021/08/06 02:24:09;;;;;;;1.60;1.50;;;24.90;55.60;;;;;;5104625;28;20610;-71
2021/08/06 02:26:49;;;;;;;1.40;1.30;;;24.90;55.50;;;;;;5101363;28;20200;-71
2021/08/06 02:29:19;;;;;;;2.00;1.90;;;24.90;55.60;;;;;;5103742;28;20227;-71
2021/08/06 02:31:50;;;;;;;1.87;1.77;;;24.80;55.50;;;;;;5104401;28;20666;-71
2021/08/06 02:34:20;;;;;;;1.57;1.43;;;24.80;55.50;;;;;;5093339;28;20540;-71
2021/08/06 02:36:49;;;;;;;1.60;1.50;;;24.80;55.50;;;;;;5103112;28;20196;-71
2021/08/06 02:39:25;;;;;;;1.60;1.50;;;24.90;55.60;;;;;;5100046;28;20204;-71
2021/08/06 02:42:03;;;;;;;1.33;1.23;;;24.80;55.50;;;;;;5109241;28;20192;-71
2021/08/06 02:44:38;;;;;;;1.27;1.20;;;24.80;55.50;;;;;;5105232;28;20203;-71
2021/08/06 02:47:10;;;;;;;1.33;1.30;;;24.80;55.50;;;;;;5109478;28;20192;-71
2021/08/06 02:49:42;;;;;;;1.80;1.70;;;24.80;55.50;;;;;;5106087;28;20213;-72
2021/08/06 02:52:14;;;;;;;1.60;1.50;;;24.80;55.50;;;;;;5107768;28;20212;-71
2021/08/06 02:54:45;;;;;;;1.53;1.43;;;24.80;55.50;;;;;;5102937;28;20193;-71
2021/08/06 02:57:15;;;;;;;1.70;1.60;;;24.80;55.60;;;;;;5109180;28;20235;-71
2021/08/06 02:59:44;;;;;;;1.47;1.37;;;24.80;55.60;;;;;;5103710;28;20208;-72
2021/08/06 03:02:17;;;;;;;1.43;1.33;;;24.80;55.60;;;;;;5108370;28;20232;-71
2021/08/06 03:04:46;;;;;;;1.20;1.13;;;24.80;55.70;;;;;;5103822;28;20258;-71
2021/08/06 03:07:19;;;;;;;1.60;1.50;;;24.80;55.60;;;;;;5107719;28;20184;-72
2021/08/06 03:09:50;;;;;;;1.50;1.40;;;24.70;55.60;;;;;;5104568;28;20657;-71
2021/08/06 03:12:20;;;;;;;1.50;1.40;;;24.70;55.60;;;;;;5107595;28;20217;-71
2021/08/06 03:14:53;;;;;;;1.17;1.17;;;24.70;55.50;;;;;;5095758;28;20222;-71
2021/08/06 03:17:23;;;;;;;1.30;1.20;;;24.80;55.60;;;;;;5106292;28;20197;-71
2021/08/06 03:19:53;;;;;;;2.03;1.63;;;24.70;55.50;;;;;;5108083;28;20207;-71
2021/08/06 03:22:25;;;;;;;1.10;1.10;;;24.70;55.60;;;;;;5100722;28;20199;-72
2021/08/06 03:24:55;;;;;;;1.33;1.23;;;24.70;55.60;;;;;;5091679;28;20662;-72
2021/08/06 03:27:27;;;;;;;1.53;1.43;;;24.70;55.60;;;;;;5099470;28;20731;-71
2021/08/06 03:29:58;;;;;;;1.43;1.33;;;24.70;55.60;;;;;;5106078;28;20208;-72
2021/08/06 03:32:28;;;;;;;1.47;1.37;;;24.70;55.60;;;;;;5104003;28;20192;-72
2021/08/06 03:35:00;;;;;;;1.50;1.40;;;24.70;55.60;;;;;;5064165;28;20227;-72
2021/08/06 03:37:31;;;;;;;1.23;1.17;;;24.70;55.60;;;;;;5104011;28;20189;-72
2021/08/06 03:40:00;;;;;;;1.40;1.30;;;24.70;55.60;;;;;;5107700;28;20220;-71
2021/08/06 03:42:34;;;;;;;1.30;1.20;;;24.70;55.60;;;;;;5109926;28;20224;-71
2021/08/06 03:45:04;;;;;;;1.30;1.20;;;24.70;55.60;;;;;;5108814;28;20208;-72
2021/08/06 03:47:35;;;;;;;1.50;1.40;;;24.70;55.60;;;;;;5106259;28;20192;-72
2021/08/06 03:50:06;;;;;;;1.33;1.23;;;24.70;55.60;;;;;;5103810;28;20228;-72
2021/08/06 03:52:35;;;;;;;1.17;1.13;;;24.70;56.00;;;;;;5092981;28;20197;-71
2021/08/06 03:55:03;;;;;;;1.40;1.30;;;24.70;55.60;;;;;;5098990;28;20201;-72
2021/08/06 03:57:33;;;;;;;1.20;1.10;;;24.70;55.70;;;;;;5107743;28;20236;-72
2021/08/06 04:00:01;;;;;;;1.60;1.40;;;24.70;55.70;;;;;;5096704;28;20591;-72
2021/08/06 04:02:30;;;;;;;1.87;1.50;;;24.60;55.60;;;;;;5096500;28;20217;-71
2021/08/06 04:05:02;;;;;;;1.20;1.20;;;24.70;55.70;;;;;;5102437;28;20602;-72
2021/08/06 04:07:48;;;;;;;2.87;1.10;;;24.70;55.70;;;;;;5100230;28;20208;-72
2021/08/06 04:10:20;;;;;;;1.40;1.30;;;24.70;55.70;;;;;;5099571;28;20208;-72
2021/08/06 04:12:51;;;;;;;1.20;1.10;;;24.60;55.70;;;;;;5105395;28;20218;-72
2021/08/06 04:15:23;;;;;;;1.23;1.13;;;24.60;55.60;;;;;;5101079;28;20208;-72
2021/08/06 04:17:54;;;;;;;1.50;1.40;;;24.60;55.70;;;;;;5099276;28;20686;-72
2021/08/06 04:20:23;;;;;;;0.97;0.97;;;24.60;55.70;;;;;;5102727;28;20199;-72
2021/08/06 04:22:55;;;;;;;1.27;1.17;;;24.60;55.70;;;;;;5102362;28;20349;-71
2021/08/06 04:25:28;;;;;;;1.23;1.13;;;24.60;55.60;;;;;;5108472;28;20198;-72
2021/08/06 04:28:01;;;;;;;1.70;1.60;;;24.60;55.70;;;;;;5099541;28;20288;-72
2021/08/06 04:30:35;;;;;;;1.30;1.20;;;24.60;55.70;;;;;;5087518;28;20216;-72
2021/08/06 04:33:05;;;;;;;1.50;1.40;;;24.60;55.70;;;;;;5100967;28;20197;-71
2021/08/06 04:35:37;;;;;;;1.10;1.00;;;24.60;55.70;;;;;;5099730;28;20194;-72
2021/08/06 04:38:13;;;;;;;1.40;1.30;;;24.60;55.70;;;;;;5098572;28;20656;-71
2021/08/06 04:40:43;;;;;;;1.43;1.33;;;24.60;55.60;;;;;;5106376;28;20653;-72
2021/08/06 04:43:14;;;;;;;1.27;1.17;;;24.60;55.60;;;;;;5098419;28;20683;-71
2021/08/06 04:45:45;;;;;;;1.23;1.13;;;24.60;55.60;;;;;;5086361;28;20204;-71
2021/08/06 04:48:18;;;;;;;1.47;1.37;;;24.50;55.50;;;;;;5099478;28;20204;-71
2021/08/06 04:50:49;;;;;;;1.37;1.27;;;24.60;55.60;;;;;;5101080;28;20223;-71
2021/08/06 04:53:21;;;;;;;0.87;0.87;;;24.60;55.60;;;;;;5104379;28;20249;-71
2021/08/06 04:55:50;;;;;;;1.30;1.20;;;24.60;55.50;;;;;;5104044;28;20197;-71
2021/08/06 04:58:19;;;;;;;1.00;1.00;;;24.60;55.50;;;;;;5106624;28;20223;-71
2021/08/06 05:00:49;;;;;;;1.30;1.20;;;24.60;55.60;;;;;;5100813;28;20214;-71
2021/08/06 05:03:21;;;;;;;1.20;1.10;;;24.50;55.50;;;;;;5108330;28;20523;-71
2021/08/06 05:05:50;;;;;;;1.00;1.00;;;24.60;55.50;;;;;;5100862;28;20236;-71
2021/08/06 05:08:21;;;;;;;1.47;1.37;;;24.50;55.50;;;;;;5107153;28;20196;-71
2021/08/06 05:10:55;;;;;;;1.47;1.37;;;24.50;55.50;;;;;;5103374;28;20277;-71
2021/08/06 05:13:28;;;;;;;1.10;1.00;;;24.50;55.50;;;;;;5092658;28;20197;-70
2021/08/06 05:15:59;;;;;;;1.30;1.20;;;24.50;55.50;;;;;;5102516;28;20185;-69
2021/08/06 05:18:29;;;;;;;1.10;1.10;;;24.50;55.50;;;;;;5105212;28;20401;-69
2021/08/06 05:20:59;;;;;;;3.10;1.03;;;24.50;55.50;;;;;;5101261;28;20211;-69
2021/08/06 05:23:31;;;;;;;1.10;1.10;;;24.50;55.50;;;;;;5106318;28;20661;-69
2021/08/06 05:26:04;;;;;;;1.47;1.20;;;24.50;55.50;;;;;;5102476;28;20200;-69
2021/08/06 05:28:33;;;;;;;1.00;1.00;;;24.50;55.50;;;;;;5105948;28;20202;-69
2021/08/06 05:31:05;;;;;;;1.30;1.20;;;24.50;55.50;;;;;;5097220;28;20217;-69
2021/08/06 05:33:34;;;;;;;1.20;1.10;;;24.50;55.50;;;;;;5098202;28;20200;-69
2021/08/06 05:36:05;;;;;;;1.00;1.00;;;24.50;55.50;;;;;;5099156;28;20188;-69
2021/08/06 05:38:35;;;;;;;1.30;1.20;;;24.50;55.50;;;;;;5095970;28;20201;-68
2021/08/06 05:41:03;;;;;;;1.30;1.20;;;24.50;55.50;;;;;;5107518;28;20206;-69
2021/08/06 05:43:34;;;;;;;1.07;1.03;;;24.50;55.50;;;;;;5107401;28;20208;-69
2021/08/06 05:46:03;;;;;;;1.27;1.17;;;24.50;55.50;;;;;;5102858;28;20281;-69
2021/08/06 05:48:33;;;;;;;0.97;0.97;;;24.50;55.50;;;;;;5105621;28;20189;-68
2021/08/06 05:51:20;;;;;;;0.90;0.90;;;24.50;55.60;;;;;;5108943;28;20216;-68
2021/08/06 05:53:49;;;;;;;1.00;1.00;;;24.50;55.60;;;;;;5105776;28;20198;-69
2021/08/06 05:56:20;;;;;;;1.00;1.00;;;24.40;55.50;;;;;;5108115;28;20291;-68
2021/08/06 05:58:54;;;;;;;0.90;0.90;;;24.50;55.60;;;;;;5100521;28;20193;-68
2021/08/06 06:01:25;;;;;;;1.10;1.10;;;24.40;55.50;;;;;;5103863;28;20196;-68
2021/08/06 06:03:55;;;;;;;1.13;0.80;;;24.50;55.50;;;;;;5105808;28;20197;-68
2021/08/06 06:06:24;;;;;;;1.20;1.10;;;24.50;55.60;;;;;;5108190;28;20278;-68
2021/08/06 06:08:58;;;;;;;1.10;1.10;;;24.50;55.60;;;;;;5109308;28;20219;-68
2021/08/06 06:11:30;;;;;;;1.10;1.00;;;24.50;55.60;;;;;;5101143;28;20230;-69
2021/08/06 06:14:01;;;;;;;0.90;0.90;;;24.50;55.60;;;;;;5110333;28;20223;-69
2021/08/06 06:16:32;;;;;;;0.90;0.90;;;24.50;55.60;;;;;;5101154;28;20220;-69
2021/08/06 06:19:02;;;;;;;1.00;1.00;;;24.40;55.50;;;;;;5102939;28;20625;-68
2021/08/06 06:21:35;;;;;;;1.37;1.27;;;24.50;55.60;;;;;;5096898;28;20191;-69
2021/08/06 06:24:03;;;;;;;0.90;0.90;;;24.50;55.60;;;;;;5112756;28;20200;-68
2021/08/06 06:26:34;;;;;;;1.00;1.00;;;24.40;55.50;;;;;;5105043;28;20207;-69
2021/08/06 06:29:06;;;;;;;0.90;0.90;;;24.40;55.50;;;;;;5110074;28;20653;-69
2021/08/06 06:31:35;;;;;;;0.90;0.90;;;24.50;55.60;;;;;;5104784;28;20219;-70
2021/08/06 06:34:05;;;;;;;0.90;0.90;;;24.50;55.50;;;;;;5109135;28;20188;-69
2021/08/06 06:36:35;;;;;;;1.00;1.00;;;24.40;55.50;;;;;;5106380;28;20253;-69
2021/08/06 06:39:05;;;;;;;0.80;0.80;;;24.40;55.50;;;;;;5110651;28;20228;-73
2021/08/06 06:41:36;;;;;;;1.00;1.00;;;24.40;55.50;;;;;;5107250;28;20200;-69
2021/08/06 06:44:08;;;;;;;0.90;0.90;;;24.50;55.50;;;;;;5104432;28;20205;-69
2021/08/06 06:46:40;;;;;;;0.90;0.90;;;24.40;55.50;;;;;;5105626;28;20192;-69
2021/08/06 06:49:11;;;;;;;1.00;1.00;;;24.40;55.50;;;;;;5101747;28;20200;-69
2021/08/06 06:51:39;;;;;;;1.10;1.07;;;24.40;56.20;;;;;;5093464;28;20215;-69
2021/08/06 06:54:08;;;;;;;1.00;0.90;;;24.40;55.50;;;;;;5100910;28;20228;-69
2021/08/06 06:56:40;;;;;;;0.90;0.90;;;24.40;56.10;;;;;;5106371;28;20224;-69
2021/08/06 06:59:17;;;;;;;1.10;0.73;;;24.40;55.50;;;;;;5100836;28;20280;-69
2021/08/06 07:01:48;;;;;;;1.00;1.00;;;24.40;55.60;;;;;;5107044;28;20200;-70
2021/08/06 07:04:18;;;;;;;1.10;1.00;;;24.40;55.50;;;;;;5103537;28;20212;-69
2021/08/06 07:06:49;;;;;;;1.10;1.00;;;24.40;55.60;;;;;;5108489;28;20193;-70
2021/08/06 07:09:20;;;;;;;1.00;1.00;;;24.40;55.50;;;;;;5094705;28;20189;-69
2021/08/06 07:11:48;;;;;;;1.00;1.00;;;24.40;55.60;;;;;;5104466;28;20216;-69
2021/08/06 07:14:17;;;;;;;0.97;0.93;;;24.40;55.50;;;;;;5108033;28;20609;-69
2021/08/06 07:16:51;;;;;;;1.27;1.10;;;24.40;55.50;;;;;;5102828;28;20197;-70
2021/08/06 07:19:20;;;;;;;1.57;0.90;;;24.40;55.50;;;;;;5098225;28;20228;-69
2021/08/06 07:21:52;;;;;;;0.90;0.90;;;24.40;55.50;;;;;;5101439;28;20208;-69
2021/08/06 07:24:22;;;;;;;1.20;1.10;;;24.40;55.50;;;;;;5104547;28;20345;-70
2021/08/06 07:26:51;;;;;;;1.60;1.13;;;24.40;55.50;;;;;;5101598;28;20190;-70
2021/08/06 07:29:22;;;;;;;1.53;1.00;;;24.40;55.50;;;;;;5101486;28;20212;-69
2021/08/06 07:31:54;;;;;;;1.27;1.10;;;24.40;55.50;;;;;;5099460;28;20224;-70
2021/08/06 07:34:22;;;;;;;1.20;0.97;;;24.40;55.50;;;;;;5102537;28;20216;-69
2021/08/06 07:36:54;;;;;;;0.70;0.70;;;24.40;55.50;;;;;;5096467;28;20208;-70
2021/08/06 07:39:22;;;;;;;0.93;0.93;;;24.40;55.50;;;;;;5104871;28;20224;-70
2021/08/06 07:41:53;;;;;;;0.90;0.90;;;24.40;55.60;;;;;;5076089;28;20212;-70
2021/08/06 07:44:23;;;;;;;1.27;0.90;;;24.40;55.50;;;;;;5100330;28;20196;-69
2021/08/06 07:46:54;;;;;;;1.00;0.90;;;24.40;55.50;;;;;;5101870;28;20207;-70
2021/08/06 07:49:25;;;;;;;0.97;0.90;;;24.40;55.50;;;;;;5105401;28;20205;-70
2021/08/06 07:52:00;;;;;;;1.27;0.90;;;24.40;55.50;;;;;;5107160;28;20207;-69
2021/08/06 07:54:33;;;;;;;1.40;1.10;;;24.40;55.60;;;;;;5090265;28;20208;-69
2021/08/06 07:57:01;;;;;;;1.10;1.10;;;24.40;55.50;;;;;;5106987;28;20224;-69
2021/08/06 07:59:29;;;;;;;0.97;0.90;;;24.40;55.50;;;;;;5103017;28;20201;-69
2021/08/06 08:02:03;;;;;;;1.03;0.83;;;24.40;55.60;;;;;;5091766;28;20193;-70
2021/08/06 08:04:35;;;;;;;1.17;1.07;;;24.40;55.50;;;;;;5106876;28;20204;-69
2021/08/06 08:07:08;;;;;;;1.07;0.90;;;24.40;55.50;;;;;;5103572;28;20217;-70
2021/08/06 08:09:37;;;;;;;1.40;0.87;;;24.40;55.50;;;;;;5103553;28;20203;-71
2021/08/06 08:12:06;;;;;;;1.07;1.00;;;24.40;55.50;;;;;;5107419;28;20641;-70
2021/08/06 08:14:36;;;;;;;0.83;0.83;;;24.40;55.50;;;;;;5104919;28;20188;-69
2021/08/06 08:17:06;;;;;;;1.00;0.90;;;24.40;55.60;;;;;;5105589;28;20192;-70
2021/08/06 08:19:37;;;;;;;1.07;0.90;;;24.40;55.50;;;;;;5120829;27;20212;-69
2021/08/06 08:22:06;;;;;;;1.17;1.07;;;24.40;55.50;;;;;;5098369;28;20212;-70
2021/08/06 08:24:37;;;;;;;1.80;1.13;;;24.40;55.60;;;;;;5104044;28;20203;-70
2021/08/06 08:27:10;;;;;;;1.10;1.00;;;24.40;55.60;;;;;;5102730;28;20196;-69
2021/08/06 08:29:46;;;;;;;1.20;1.10;;;24.40;55.60;;;;;;5098366;28;20267;-70
2021/08/06 08:32:17;;;;;;;1.47;1.10;;;24.40;55.60;;;;;;5100641;28;20217;-70
2021/08/06 08:34:49;;;;;;;1.17;0.90;;;24.40;55.60;;;;;;5104857;28;20220;-71
2021/08/06 08:37:19;;;;;;;1.17;1.07;;;24.40;55.70;;;;;;5097997;28;20193;-71
2021/08/06 08:39:49;;;;;;;1.23;1.10;;;24.40;55.70;;;;;;5105245;28;20196;-71
2021/08/06 08:42:21;;;;;;;1.20;1.10;;;24.40;55.70;;;;;;5096765;28;20204;-71
2021/08/06 08:44:53;;;;;;;1.27;1.13;;;24.40;55.80;;;;;;5106902;28;20524;-71
2021/08/06 08:47:28;;;;;;;1.67;1.30;;;24.40;55.70;;;;;;5100317;28;20203;-71
2021/08/06 08:50:05;;;;;;;1.20;1.10;;;24.40;55.70;;;;;;5103627;28;20551;-71
2021/08/06 08:52:33;;;;;;;1.30;1.20;;;24.40;56.30;;;;;;5091092;28;20231;-71
2021/08/06 08:55:01;;;;;;;1.10;1.00;;;24.40;55.70;;;;;;5098341;28;20305;-70
2021/08/06 08:57:29;;;;;;;1.10;1.00;;;24.40;55.70;;;;;;5093615;28;20233;-71
2021/08/06 08:59:58;;;;;;;1.73;1.20;;;24.40;55.70;;;;;;5103329;28;20192;-71
2021/08/06 09:02:29;;;;;;;1.20;1.10;;;24.40;55.70;;;;;;5105595;28;20207;-71
2021/08/06 09:05:15;;;;;;;1.33;1.20;;;24.50;55.80;;;;;;5102536;28;20207;-71
2021/08/06 09:07:45;;;;;;;1.17;1.17;;;24.50;55.70;;;;;;5095198;28;20510;-71
2021/08/06 09:10:28;;;;;;;1.30;1.20;;;24.50;55.70;;;;;;5101255;28;20205;-71
2021/08/06 09:13:01;;;;;;;1.10;1.00;;;24.50;55.70;;;;;;5104832;28;20227;-71
2021/08/06 09:16:04;;;;;;;1.30;1.20;;;24.50;55.80;;;;;;5100903;28;20288;-71
2021/08/06 09:18:39;;;;;;;1.27;1.17;;;24.50;55.80;;;;;;5105305;28;20645;-72
2021/08/06 09:21:22;;;;;;;1.33;1.23;;;24.50;55.80;;;;;;5104626;28;20648;-71
2021/08/06 09:23:58;;;;;;;2.57;1.10;;;24.50;55.80;;;;;;5101865;28;20205;-71
2021/08/06 09:26:45;;;;;;;1.67;1.40;;;24.50;55.70;;;;;;5110704;28;20280;-71
2021/08/06 09:29:24;;;;;;;1.30;1.20;;;24.50;55.70;;;;;;5104480;28;20207;-71
2021/08/06 09:31:59;;;;;;;1.33;1.20;;;24.50;55.80;;;;;;5098367;28;20667;-70
2021/08/06 09:34:36;;;;;;;1.50;1.20;;;24.50;55.70;;;;;;5108610;28;20196;-72
2021/08/06 09:37:18;;;;;;;1.33;1.23;;;24.50;55.70;;;;;;5126725;27;20257;-72
2021/08/06 09:39:53;;;;;;;1.30;1.10;;;24.50;55.70;;;;;;5097617;28;20642;-72
2021/08/06 09:42:32;;;;;;;1.30;1.10;;;24.60;55.80;;;;;;5104795;28;20229;-71
2021/08/06 09:45:25;;;;;;;1.20;1.10;;;24.50;55.70;;;;;;5105169;28;20200;-72
2021/08/06 09:47:57;;;;;;;1.30;1.20;;;24.50;55.80;;;;;;5089177;28;20214;-72
2021/08/06 09:50:37;;;;;;;1.13;1.07;;;24.60;55.80;;;;;;5111420;28;20196;-72
2021/08/06 09:53:23;;;;;;;1.60;1.40;;;24.50;55.80;;;;;;5105940;28;20530;-71
2021/08/06 09:55:54;;;;;;;1.67;1.23;;;24.60;55.80;;;;;;5111161;28;20201;-72
2021/08/06 09:58:33;;;;;;;1.30;1.20;;;24.50;55.80;;;;;;5101871;28;20216;-72
2021/08/06 10:01:20;;;;;;;1.43;1.33;;;24.60;55.80;;;;;;5109927;28;20668;-72
2021/08/06 10:03:48;;;;;;;1.07;1.00;;;24.60;55.80;;;;;;5106631;28;20185;-72
2021/08/06 10:06:19;;;;;;;1.47;1.20;;;24.60;55.80;;;;;;5104702;28;20205;-72
2021/08/06 10:08:52;;;;;;;1.40;1.30;;;24.60;55.70;;;;;;5095893;28;20196;-72
2021/08/06 10:11:22;;;;;;;2.43;1.53;;;24.60;55.80;;;;;;5105160;28;20224;-72
2021/08/06 10:14:00;;;;;;;1.57;1.47;;;24.60;55.80;;;;;;5108999;28;20668;-72
2021/08/06 10:16:32;;;;;;;1.30;1.20;;;24.60;55.80;;;;;;5104254;28;20665;-72
2021/08/06 10:19:02;;;;;;;1.53;1.40;;;24.60;55.80;;;;;;5112218;28;20261;-72
2021/08/06 10:21:30;;;;;;;1.37;1.27;;;24.60;55.80;;;;;;5088334;28;20220;-71
2021/08/06 10:23:59;;;;;;;1.60;1.50;;;24.60;55.80;;;;;;5110500;28;20200;-71
2021/08/06 10:26:31;;;;;;;1.40;1.27;;;24.60;55.70;;;;;;5107066;28;20210;-71
2021/08/06 10:29:00;;;;;;;2.10;1.40;;;24.60;55.80;;;;;;5107169;28;20197;-71
2021/08/06 10:31:33;;;;;;;1.67;1.50;;;24.60;55.80;;;;;;5102709;28;20224;-73
2021/08/06 10:34:13;;;;;;;1.60;1.50;;;24.60;55.80;;;;;;5102105;28;20222;-71
2021/08/06 10:36:51;;;;;;;1.77;1.60;;;24.60;55.80;;;;;;5107876;28;20265;-71
2021/08/06 10:39:42;;;;;;;1.60;1.50;;;24.60;55.90;;;;;;5098297;28;20661;-71
2021/08/06 10:42:10;;;;;;;1.33;1.23;;;24.70;55.90;;;;;;5098803;28;20774;-72
2021/08/06 10:45:00;;;;;;;1.40;1.30;;;24.60;55.90;;;;;;5103287;28;20201;-71
2021/08/06 10:48:05;;;;;;;1.50;1.30;;;24.70;55.90;;;;;;5110661;28;20651;-71
2021/08/06 10:50:34;;;;;;;1.67;1.57;;;24.70;55.90;;;;;;5023423;28;20341;-72
2021/08/06 10:53:18;;;;;;;2.37;1.20;;;24.60;55.90;;;;;;5024515;28;20319;-72
2021/08/06 10:56:29;;;;;;;1.07;1.03;;;24.60;55.90;;;;;;5027166;28;20581;-72
2021/08/06 10:59:11;;;;;;;1.73;1.33;;;24.70;56.00;;;;;;5005920;28;20357;-72
2021/08/06 11:01:48;;;;;;;2.07;0.97;;;24.70;56.00;;;;;;4991179;28;20211;-72
2021/08/06 11:04:32;;;;;;;1.20;1.10;;;24.70;56.00;;;;;;4972018;28;20244;-72
2021/08/06 11:07:04;;;;;;;1.30;1.07;;;24.70;56.00;;;;;;5001074;28;20200;-71
2021/08/06 11:09:37;;;;;;;1.83;1.00;;;24.70;56.00;;;;;;5002895;28;20208;-71
2021/08/06 11:12:33;;;;;;;1.30;1.20;;;24.70;56.00;;;;;;5002442;28;20310;-72
2021/08/06 11:15:06;;;;;;;1.17;1.00;;;24.70;56.00;;;;;;5007215;28;20204;-72
2021/08/06 11:17:45;;;;;;;1.43;1.13;;;24.70;56.00;;;;;;4988760;28;20243;-70
2021/08/06 11:20:22;;;;;;;1.37;1.27;;;24.70;56.00;;;;;;5005556;28;20726;-71
2021/08/06 11:22:53;;;;;;;1.10;1.10;;;24.70;56.00;;;;;;4989808;28;20250;-71
2021/08/06 11:25:26;;;;;;;1.37;1.27;;;24.70;56.00;;;;;;5075665;28;20219;-72
2021/08/06 11:28:00;;;;;;;0.90;0.90;;;24.70;56.10;;;;;;5087011;28;20282;-71
2021/08/06 11:30:44;;;;;;;1.10;1.00;;;24.70;56.00;;;;;;5078202;28;20776;-70
2021/08/06 11:33:15;;;;;;;1.70;1.47;;;24.70;56.00;;;;;;5083078;28;20322;-72
2021/08/06 11:35:48;;;;;;;2.00;1.20;;;24.80;56.10;;;;;;5078812;28;20193;-71
2021/08/06 11:38:25;;;;;;;1.83;1.07;;;24.80;56.10;;;;;;5088180;28;20197;-71
2021/08/06 11:40:57;;;;;;;1.00;1.00;;;24.80;56.10;;;;;;5080199;28;20204;-71
2021/08/06 11:43:30;;;;;;;1.17;1.07;;;24.80;56.10;;;;;;5088574;28;20555;-72
2021/08/06 11:46:29;;;;;;;1.40;1.30;;;24.80;56.10;;;;;;5081660;28;20215;-71
2021/08/06 11:49:06;;;;;;;1.33;1.23;;;24.80;56.10;;;;;;5086166;28;20205;-72
2021/08/06 11:51:45;;;;;;;1.10;1.10;;;24.80;56.00;;;;;;5085276;28;20223;-72
2021/08/06 11:54:14;;;;;;;1.43;1.13;;;24.80;56.10;;;;;;5081765;28;20198;-71
2021/08/06 11:56:46;;;;;;;1.30;1.20;;;24.80;56.10;;;;;;5088286;28;20712;-71
2021/08/06 11:59:22;;;;;;;1.10;1.03;;;24.90;56.10;;;;;;5100180;28;20188;-71
2021/08/06 12:02:26;;;;;;;1.10;1.03;;;24.80;56.00;;;;;;5108949;28;20206;-71
2021/08/06 12:05:21;;;;;;;1.20;1.10;;;24.90;56.10;;;;;;5078832;28;20208;-71
2021/08/06 12:07:53;;;;;;;1.20;1.10;;;24.90;56.10;;;;;;5099464;28;20207;-71
2021/08/06 12:10:27;;;;;;;1.43;1.23;;;24.90;56.10;;;;;;5102254;28;20497;-71
2021/08/06 12:12:58;;;;;;;1.20;1.00;;;24.90;56.10;;;;;;5107878;28;20231;-71
2021/08/06 12:15:27;;;;;;;0.90;0.90;;;24.90;56.10;;;;;;5109118;28;20617;-71
2021/08/06 12:18:19;;;;;;;1.53;1.27;;;24.90;56.10;;;;;;5102318;28;20836;-71
2021/08/06 12:21:01;;;;;;;1.90;0.90;;;24.90;56.10;;;;;;5107729;28;20196;-71
2021/08/06 12:23:33;;;;;;;1.33;1.23;;;24.90;56.10;;;;;;5103388;28;20189;-71
2021/08/06 12:26:34;;;;;;;1.40;1.10;;;24.90;56.10;;;;;;5108830;28;20199;-71
2021/08/06 12:29:39;;;;;;;1.47;1.03;;;24.90;56.10;;;;;;5104564;28;20214;-72
2021/08/06 12:32:15;;;;;;;1.40;1.30;;;24.90;56.20;;;;;;5119961;28;20368;-71
2021/08/06 12:34:48;;;;;;;1.93;1.40;;;24.90;56.20;;;;;;5125076;28;20181;-70
2021/08/06 12:37:30;;;;;;;1.20;1.10;;;24.90;56.20;;;;;;5122636;28;20219;-70
2021/08/06 12:40:00;;;;;;;1.23;1.03;;;24.90;56.20;;;;;;5127134;28;20197;-70
2021/08/06 12:42:38;;;;;;;1.07;1.00;;;24.90;56.20;;;;;;5125430;28;20210;-70
2021/08/06 12:45:21;;;;;;;1.77;1.07;;;24.90;56.20;;;;;;5127151;28;20712;-70
2021/08/06 12:47:58;;;;;;;2.03;1.17;;;24.90;56.20;;;;;;5122697;28;20230;-70
2021/08/06 12:50:36;;;;;;;1.20;1.10;;;25.00;56.30;;;;;;5105407;28;20280;-70
2021/08/06 12:53:16;;;;;;;1.07;1.00;;;25.00;56.30;;;;;;5103682;28;20660;-70
2021/08/06 12:55:48;;;;;;;1.13;1.07;;;25.00;56.20;;;;;;5103287;28;20272;-70
2021/08/06 12:58:20;;;;;;;1.00;1.00;;;25.00;56.30;;;;;;5100454;28;20239;-70
2021/08/06 13:00:54;;;;;;;0.90;0.90;;;25.00;56.30;;;;;;5100627;28;20202;-71
2021/08/06 13:03:31;;;;;;;1.10;1.00;;;25.00;56.30;;;;;;5105604;28;20269;-70
2021/08/06 13:06:01;;;;;;;1.43;1.10;;;25.00;56.40;;;;;;5104092;28;20191;-70
2021/08/06 13:08:44;;;;;;;1.27;1.17;;;25.00;56.40;;;;;;5102049;28;20667;-70
2021/08/06 13:11:20;;;;;;;1.10;1.00;;;25.00;56.30;;;;;;5100969;28;20196;-70
2021/08/06 13:13:54;;;;;;;0.80;0.80;;;25.00;56.40;;;;;;5108171;28;20215;-70
2021/08/06 13:16:26;;;;;;;0.90;0.80;;;25.00;56.40;;;;;;5098974;28;20614;-70
2021/08/06 13:18:55;;;;;;;0.87;0.87;;;25.00;56.40;;;;;;5098919;28;20240;-70
2021/08/06 13:21:26;;;;;;;0.97;0.90;;;25.00;56.40;;;;;;5107074;28;20181;-70
2021/08/06 13:23:59;;;;;;;1.23;1.03;;;25.00;56.50;;;;;;5100413;28;20248;-70